createdAt,value
2023-08-15T00:02:19.302Z,16.57
2023-08-15T00:04:45.674Z,16.68
2023-08-15T00:07:12.054Z,16.86
2023-08-15T00:09:38.434Z,16.65
2023-08-15T00:12:04.836Z,16.64
2023-08-15T00:14:31.196Z,16.85
2023-08-15T00:16:57.640Z,17.05
2023-08-15T00:19:24.077Z,16.73
2023-08-15T00:21:50.486Z,16.65
2023-08-15T00:24:16.907Z,16.57
2023-08-15T00:26:44.165Z,16.95
2023-08-15T00:29:10.568Z,16.73
2023-08-15T00:31:37.167Z,16.62
2023-08-15T00:34:03.571Z,16.61
2023-08-15T00:36:29.958Z,16.78
2023-08-15T00:38:56.601Z,16.88
2023-08-15T00:41:23.233Z,16.75
2023-08-15T00:43:49.851Z,16.61
2023-08-15T00:46:16.231Z,16.60
2023-08-15T00:48:42.646Z,16.86
2023-08-15T00:51:09.057Z,16.79
2023-08-15T00:53:35.686Z,16.62
2023-08-15T00:56:02.351Z,16.57
2023-08-15T00:58:28.759Z,16.69
2023-08-15T01:00:55.131Z,16.88
2023-08-15T01:03:21.587Z,16.72
2023-08-15T01:05:48.022Z,16.65
2023-08-15T01:08:14.410Z,16.65
2023-08-15T01:10:40.771Z,16.93
2023-08-15T01:13:07.158Z,16.75
2023-08-15T01:15:33.542Z,16.61
2023-08-15T01:17:59.990Z,16.62
2023-08-15T01:20:26.469Z,16.93
2023-08-15T01:22:52.844Z,16.99
2023-08-15T01:25:19.226Z,16.68
2023-08-15T01:27:45.628Z,16.64
2023-08-15T01:30:12.233Z,16.69
2023-08-15T01:32:38.834Z,16.98
2023-08-15T01:35:06.126Z,16.82
2023-08-15T01:37:32.514Z,16.64
2023-08-15T01:39:58.891Z,16.58
2023-08-15T01:42:25.257Z,16.73
2023-08-15T01:44:51.644Z,16.81
2023-08-15T01:47:18.339Z,16.71
2023-08-15T01:49:44.948Z,16.61
2023-08-15T01:52:11.348Z,16.76
2023-08-15T01:54:37.743Z,16.89
2023-08-15T01:57:04.231Z,16.83
2023-08-15T01:59:30.872Z,16.65
2023-08-15T02:01:57.245Z,16.64
2023-08-15T02:04:23.700Z,16.89
2023-08-15T02:06:50.083Z,16.81
2023-08-15T02:09:16.459Z,16.68
2023-08-15T02:11:42.850Z,16.60
2023-08-15T02:14:09.230Z,16.86
2023-08-15T02:16:35.827Z,16.92
2023-08-15T02:19:02.240Z,16.71
2023-08-15T02:21:28.850Z,16.61
2023-08-15T02:23:55.251Z,16.78
2023-08-15T02:26:21.615Z,17.09
2023-08-15T02:28:48.249Z,16.75
2023-08-15T02:31:14.658Z,16.60
2023-08-15T02:33:41.049Z,16.57
2023-08-15T02:36:07.517Z,16.96
2023-08-15T02:38:33.901Z,16.81
2023-08-15T02:41:00.302Z,16.65
2023-08-15T02:43:26.672Z,16.62
2023-08-15T02:45:53.059Z,16.89
2023-08-15T02:48:19.433Z,16.98
2023-08-15T02:50:45.812Z,16.71
2023-08-15T02:53:12.175Z,16.62
2023-08-15T02:55:38.552Z,16.65
2023-08-15T02:58:04.982Z,16.72
2023-08-15T03:00:31.365Z,16.81
2023-08-15T03:02:57.797Z,16.68
2023-08-15T03:05:24.258Z,16.62
2023-08-15T03:07:50.629Z,16.65
2023-08-15T03:10:16.997Z,16.83
2023-08-15T03:12:43.371Z,16.72
2023-08-15T03:15:09.776Z,16.62
2023-08-15T03:17:37.049Z,16.58
2023-08-15T03:20:03.434Z,16.91
2023-08-15T03:22:30.033Z,16.82
2023-08-15T03:24:56.409Z,16.64
2023-08-15T03:27:23.196Z,16.58
2023-08-15T03:29:50.068Z,16.69
2023-08-15T03:32:16.437Z,16.99
2023-08-15T03:34:43.133Z,16.67
2023-08-15T03:37:09.501Z,16.62
2023-08-15T03:39:35.868Z,16.62
2023-08-15T03:42:02.247Z,16.99
2023-08-15T03:44:28.844Z,16.75
2023-08-15T03:46:55.618Z,16.62
2023-08-15T03:49:22.113Z,16.61
2023-08-15T03:51:48.519Z,16.73
2023-08-15T03:54:14.938Z,16.93
2023-08-15T03:56:41.580Z,16.61
2023-08-15T03:59:07.995Z,16.61
2023-08-15T04:01:34.402Z,16.57
2023-08-15T04:04:00.960Z,16.82
2023-08-15T04:06:27.619Z,16.75
2023-08-15T04:08:54.037Z,16.61
2023-08-15T04:11:20.429Z,16.57
2023-08-15T04:13:46.814Z,16.67
2023-08-15T04:16:13.213Z,16.72
2023-08-15T04:18:39.821Z,16.62
2023-08-15T04:21:06.195Z,16.58
2023-08-15T04:23:32.591Z,16.51
2023-08-15T04:25:59.189Z,16.78
2023-08-15T04:28:25.582Z,16.69
2023-08-15T04:30:51.957Z,16.64
2023-08-15T04:33:18.341Z,16.60
2023-08-15T04:35:44.711Z,16.78
2023-08-15T04:38:11.099Z,16.69
2023-08-15T04:40:37.518Z,16.61
2023-08-15T04:43:03.948Z,16.60
2023-08-15T04:45:30.338Z,16.51
2023-08-15T04:47:56.762Z,16.54
2023-08-15T04:50:23.377Z,16.72
2023-08-15T04:52:49.763Z,16.72
2023-08-15T04:55:16.381Z,16.54
2023-08-15T04:57:42.783Z,16.58
2023-08-15T05:00:09.156Z,16.64
2023-08-15T05:02:35.762Z,16.58
2023-08-15T05:05:02.178Z,16.61
2023-08-15T05:07:31.586Z,16.86
2023-08-15T05:09:57.957Z,16.88
2023-08-15T05:12:24.353Z,16.62
2023-08-15T05:14:50.810Z,16.60
2023-08-15T05:17:17.191Z,16.65
2023-08-15T05:19:43.562Z,17.09
2023-08-15T05:22:09.961Z,16.79
2023-08-15T05:24:36.370Z,16.64
2023-08-15T05:27:02.751Z,16.57
2023-08-15T05:29:29.146Z,17.03
2023-08-15T05:31:55.516Z,16.83
2023-08-15T05:34:21.970Z,16.65
2023-08-15T05:36:48.350Z,16.60
2023-08-15T05:39:14.720Z,16.73
2023-08-15T05:41:41.098Z,17.06
2023-08-15T05:44:07.481Z,16.78
2023-08-15T05:46:33.875Z,16.62
2023-08-15T05:49:00.295Z,16.55
2023-08-15T05:51:26.682Z,17.02
2023-08-15T05:53:53.270Z,16.78
2023-08-15T05:56:19.643Z,16.62
2023-08-15T05:58:46.011Z,16.61
2023-08-15T06:01:12.399Z,16.96
2023-08-15T06:03:51.976Z,16.98
2023-08-15T06:06:19.625Z,16.67
2023-08-15T06:08:46.221Z,16.61
2023-08-15T06:11:12.830Z,16.75
2023-08-15T06:13:39.203Z,17.01
2023-08-15T06:16:06.394Z,16.67
2023-08-15T06:18:32.787Z,16.62
2023-08-15T06:20:59.183Z,16.60
2023-08-15T06:23:25.634Z,16.68
2023-08-15T06:25:52.257Z,16.76
2023-08-15T06:28:19.139Z,16.67
2023-08-15T06:30:45.608Z,16.64
2023-08-15T06:33:12.994Z,16.62
2023-08-15T06:35:39.384Z,17.02
2023-08-15T06:38:05.769Z,16.86
2023-08-15T06:40:32.157Z,16.64
2023-08-15T06:42:58.528Z,16.65
2023-08-15T06:45:25.163Z,16.71
2023-08-15T06:47:51.584Z,17.10
2023-08-15T06:50:18.022Z,16.68
2023-08-15T06:52:44.405Z,16.72
2023-08-15T06:55:10.774Z,16.78
2023-08-15T06:57:37.155Z,16.73
2023-08-15T07:00:03.618Z,16.73
2023-08-15T07:02:30.076Z,17.01
2023-08-15T07:04:56.510Z,16.65
2023-08-15T07:07:23.247Z,16.64
2023-08-15T07:09:49.817Z,16.68
2023-08-15T07:12:16.194Z,16.93
2023-08-15T07:14:42.570Z,16.72
2023-08-15T07:17:08.952Z,16.64
2023-08-15T07:19:35.333Z,16.67
2023-08-15T07:22:01.714Z,16.79
2023-08-15T07:24:28.188Z,16.91
2023-08-15T07:26:54.559Z,16.64
2023-08-15T07:29:21.020Z,16.64
2023-08-15T07:31:48.099Z,16.72
2023-08-15T07:34:14.820Z,16.69
2023-08-15T07:36:41.206Z,16.76
2023-08-15T07:39:07.690Z,16.64
2023-08-15T07:41:34.070Z,16.75
2023-08-15T07:44:00.456Z,16.68
2023-08-15T07:46:26.884Z,16.81
2023-08-15T07:48:53.302Z,16.81
2023-08-15T07:51:19.904Z,16.79
2023-08-15T07:53:46.297Z,16.78
2023-08-15T07:56:12.955Z,16.71
2023-08-15T07:58:39.350Z,16.79
2023-08-15T08:01:05.765Z,16.81
2023-08-15T08:03:32.152Z,16.82
2023-08-15T08:05:58.523Z,16.81
2023-08-15T08:08:24.901Z,16.79
2023-08-15T08:10:51.289Z,16.73
2023-08-15T08:13:17.724Z,16.72
2023-08-15T08:15:44.344Z,16.68
2023-08-15T08:18:10.751Z,16.65
2023-08-15T08:20:37.154Z,16.65
2023-08-15T08:23:03.527Z,16.69
2023-08-15T08:25:29.925Z,16.75
2023-08-15T08:27:56.310Z,16.79
2023-08-15T08:30:22.673Z,16.61
2023-08-15T08:32:49.088Z,16.81
2023-08-15T08:35:15.514Z,16.78
2023-08-15T08:37:41.919Z,16.73
2023-08-15T08:40:08.301Z,16.69
2023-08-15T08:42:34.859Z,16.82
2023-08-15T08:45:01.277Z,16.86
2023-08-15T08:47:27.769Z,16.73
2023-08-15T08:49:54.224Z,16.76
2023-08-15T08:52:20.599Z,16.79
2023-08-15T08:54:56.400Z,16.85
2023-08-15T08:57:23.892Z,16.86
2023-08-15T08:59:50.409Z,16.76
2023-08-15T09:02:17.034Z,16.86
2023-08-15T09:04:43.426Z,16.92
2023-08-15T09:07:09.817Z,16.83
2023-08-15T09:09:36.452Z,16.75
2023-08-15T09:12:02.887Z,16.82
2023-08-15T09:14:29.274Z,16.81
2023-08-15T09:16:58.491Z,16.73
2023-08-15T09:19:24.973Z,16.73
2023-08-15T09:21:51.360Z,16.81
2023-08-15T09:24:17.757Z,16.72
2023-08-15T09:26:44.140Z,16.85
2023-08-15T09:29:10.524Z,16.82
2023-08-15T09:31:36.948Z,16.95
2023-08-15T09:34:03.370Z,16.85
2023-08-15T09:36:31.926Z,16.96
2023-08-15T09:38:58.297Z,16.93
2023-08-15T09:41:26.752Z,16.86
2023-08-15T09:43:53.968Z,16.88
2023-08-15T09:46:20.372Z,16.88
2023-08-15T09:48:46.775Z,16.91
2023-08-15T09:51:13.172Z,17.03
2023-08-15T09:53:39.545Z,16.88
2023-08-15T09:56:05.918Z,16.83
2023-08-15T09:58:32.574Z,16.93
2023-08-15T10:00:58.987Z,16.99
2023-08-15T10:03:25.701Z,16.95
2023-08-15T10:05:52.115Z,16.83
2023-08-15T10:08:18.710Z,16.75
2023-08-15T10:10:45.096Z,16.92
2023-08-15T10:13:11.469Z,16.88
2023-08-15T10:15:38.065Z,16.85
2023-08-15T10:18:04.464Z,16.85
2023-08-15T10:20:30.867Z,16.85
2023-08-15T10:22:57.275Z,16.78
2023-08-15T10:25:23.739Z,16.81
2023-08-15T10:27:50.911Z,16.83
2023-08-15T10:30:17.301Z,16.76
2023-08-15T10:32:43.698Z,16.71
2023-08-15T10:35:10.100Z,16.72
2023-08-15T10:37:36.536Z,16.79
2023-08-15T10:40:03.126Z,16.76
2023-08-15T10:42:29.514Z,16.79
2023-08-15T10:44:55.899Z,16.65
2023-08-15T10:47:22.584Z,16.71
2023-08-15T10:49:49.196Z,16.83
2023-08-15T10:52:15.577Z,16.82
2023-08-15T10:54:42.164Z,16.72
2023-08-15T10:57:08.578Z,16.78
2023-08-15T10:59:35.028Z,16.81
2023-08-15T11:02:01.637Z,16.82
2023-08-15T11:04:28.065Z,16.79
2023-08-15T11:06:54.442Z,16.81
2023-08-15T11:09:20.827Z,16.79
2023-08-15T11:11:47.353Z,16.92
2023-08-15T11:14:13.741Z,16.73
2023-08-15T11:16:40.388Z,16.78
2023-08-15T11:19:09.727Z,16.78
2023-08-15T11:21:36.119Z,16.76
2023-08-15T11:24:02.528Z,16.79
2023-08-15T11:26:28.911Z,16.81
2023-08-15T11:28:55.534Z,16.78
2023-08-15T11:31:23.305Z,16.82
2023-08-15T11:33:49.992Z,17.06
2023-08-15T11:36:16.558Z,16.95
2023-08-15T11:38:43.210Z,16.89
2023-08-15T11:41:09.623Z,17.05
2023-08-15T11:43:36.268Z,16.93
2023-08-15T11:46:02.736Z,16.98
2023-08-15T11:48:29.237Z,16.92
2023-08-15T11:50:55.828Z,17.03
2023-08-15T11:53:23.595Z,16.98
2023-08-15T11:55:50.104Z,17.01
2023-08-15T11:58:16.496Z,16.92
2023-08-15T12:00:42.865Z,17.12
2023-08-15T12:03:09.286Z,17.13
2023-08-15T12:05:35.678Z,16.88
2023-08-15T12:08:02.050Z,16.86
2023-08-15T12:10:28.440Z,16.86
2023-08-15T12:12:54.822Z,16.93
2023-08-15T12:15:21.190Z,17.01
2023-08-15T12:17:47.820Z,16.85
2023-08-15T12:20:14.208Z,16.92
2023-08-15T12:22:40.606Z,16.85
2023-08-15T12:25:06.981Z,16.96
2023-08-15T12:27:33.575Z,16.91
2023-08-15T12:30:12.645Z,16.92
2023-08-15T12:32:43.020Z,16.93
2023-08-15T12:35:09.491Z,17.01
2023-08-15T12:37:36.109Z,16.95
2023-08-15T12:40:02.500Z,16.98
2023-08-15T12:42:29.304Z,16.86
2023-08-15T12:44:55.706Z,16.99
2023-08-15T12:47:22.097Z,17.01
2023-08-15T12:49:48.691Z,16.79
2023-08-15T12:52:15.079Z,16.92
2023-08-15T12:54:41.457Z,16.76
2023-08-15T12:57:07.849Z,16.92
2023-08-15T12:59:34.316Z,16.96
2023-08-15T13:02:00.740Z,16.96
2023-08-15T13:04:27.380Z,16.96
2023-08-15T13:06:54.028Z,16.78
2023-08-15T13:09:20.437Z,16.85
2023-08-15T13:11:46.816Z,16.81
2023-08-15T13:14:13.219Z,16.86
2023-08-15T13:16:39.703Z,16.76
2023-08-15T13:19:06.348Z,16.69
2023-08-15T13:21:32.706Z,16.71
2023-08-15T13:23:59.831Z,16.78
2023-08-15T13:26:26.831Z,16.83
2023-08-15T13:28:53.194Z,16.71
2023-08-15T13:31:19.759Z,16.69
2023-08-15T13:33:46.417Z,16.76
2023-08-15T13:36:12.810Z,16.83
2023-08-15T13:38:39.473Z,16.73
2023-08-15T13:41:05.920Z,16.72
2023-08-15T13:43:32.297Z,16.76
2023-08-15T13:45:58.896Z,16.79
2023-08-15T13:48:25.291Z,16.88
2023-08-15T13:50:51.883Z,16.76
2023-08-15T13:53:18.259Z,16.69
2023-08-15T13:55:44.644Z,16.88
2023-08-15T13:58:11.079Z,16.85
2023-08-15T14:00:40.702Z,16.82
2023-08-15T14:03:07.876Z,16.83
2023-08-15T14:05:34.301Z,16.79
2023-08-15T14:08:00.913Z,16.91
2023-08-15T14:10:27.294Z,16.96
2023-08-15T14:12:53.692Z,16.86
2023-08-15T14:15:20.069Z,16.92
2023-08-15T14:17:46.473Z,16.93
2023-08-15T14:20:12.889Z,16.91
2023-08-15T14:22:39.264Z,16.89
2023-08-15T14:25:05.649Z,16.82
2023-08-15T14:27:32.041Z,16.91
2023-08-15T14:29:58.432Z,16.96
2023-08-15T14:32:25.139Z,16.96
2023-08-15T14:34:51.983Z,16.83
2023-08-15T14:37:18.394Z,17.01
2023-08-15T14:39:44.827Z,16.98
2023-08-15T14:42:11.272Z,16.93
2023-08-15T14:44:37.891Z,16.92
2023-08-15T14:47:04.300Z,16.81
2023-08-15T14:49:30.710Z,17.10
2023-08-15T14:51:57.085Z,16.98
2023-08-15T14:54:23.713Z,16.92
2023-08-15T14:56:50.124Z,16.85
2023-08-15T14:59:16.789Z,16.86
2023-08-15T15:01:43.229Z,17.02
2023-08-15T15:04:09.879Z,16.99
2023-08-15T15:06:36.289Z,17.01
2023-08-15T15:09:02.671Z,16.88
2023-08-15T15:11:29.072Z,16.88
2023-08-15T15:13:55.528Z,17.08
2023-08-15T15:16:21.969Z,17.03
2023-08-15T15:18:48.372Z,17.02
2023-08-15T15:21:14.755Z,16.91
2023-08-15T15:23:41.150Z,16.85
2023-08-15T15:26:07.756Z,16.92
2023-08-15T15:28:34.156Z,16.92
2023-08-15T15:31:00.743Z,16.88
2023-08-15T15:33:27.408Z,16.82
2023-08-15T15:35:54.327Z,16.83
2023-08-15T15:38:20.743Z,17.91
2023-08-15T15:40:47.391Z,17.66
2023-08-15T15:43:13.757Z,17.29
2023-08-15T15:45:40.384Z,17.09
2023-08-15T15:48:07.056Z,17.05
2023-08-15T15:50:33.487Z,17.01
2023-08-15T15:53:00.105Z,16.99
2023-08-15T15:55:26.479Z,16.91
2023-08-15T15:57:52.852Z,16.96
2023-08-15T16:00:19.449Z,17.01
2023-08-15T16:02:45.870Z,17.01
2023-08-15T16:05:12.266Z,16.92
2023-08-15T16:07:38.864Z,16.91
2023-08-15T16:10:05.262Z,16.95
2023-08-15T16:12:31.664Z,17.05
2023-08-15T16:14:58.140Z,16.96
2023-08-15T16:17:24.515Z,16.92
2023-08-15T16:19:50.895Z,16.96
2023-08-15T16:22:17.437Z,16.95
2023-08-15T16:24:43.889Z,17.12
2023-08-15T16:27:10.445Z,17.09
2023-08-15T16:29:36.821Z,16.95
2023-08-15T16:32:03.541Z,16.93
2023-08-15T16:34:30.075Z,16.93
2023-08-15T16:36:56.674Z,17.08
2023-08-15T16:39:23.397Z,16.89
2023-08-15T16:41:49.864Z,16.93
2023-08-15T16:44:16.237Z,16.99
2023-08-15T16:46:42.683Z,17.02
2023-08-15T16:49:09.196Z,16.99
2023-08-15T16:51:35.646Z,16.92
2023-08-15T16:54:02.029Z,16.95
2023-08-15T16:56:28.409Z,17.08
2023-08-15T16:58:54.854Z,17.06
2023-08-15T17:01:21.376Z,16.99
2023-08-15T17:03:48.135Z,17.05
2023-08-15T17:06:14.609Z,17.02
2023-08-15T17:08:41.043Z,17.05
2023-08-15T17:11:07.611Z,16.96
2023-08-15T17:13:33.980Z,16.95
2023-08-15T17:16:00.370Z,16.96
2023-08-15T17:18:26.794Z,16.99
2023-08-15T17:20:53.287Z,17.02
2023-08-15T17:23:19.654Z,16.93
2023-08-15T17:25:48.365Z,16.93
2023-08-15T17:28:15.577Z,16.91
2023-08-15T17:30:42.032Z,17.02
2023-08-15T17:33:08.506Z,17.02
2023-08-15T17:35:34.997Z,16.92
2023-08-15T17:38:01.381Z,16.91
2023-08-15T17:40:27.996Z,16.91
2023-08-15T17:42:54.367Z,17.03
2023-08-15T17:45:20.964Z,16.96
2023-08-15T17:47:47.443Z,16.86
2023-08-15T17:50:13.939Z,17.01
2023-08-15T17:52:40.656Z,16.96
2023-08-15T17:55:07.278Z,16.96
2023-08-15T17:57:33.759Z,16.91
2023-08-15T18:00:00.284Z,16.95
2023-08-15T18:02:26.732Z,17.01
2023-08-15T18:04:53.355Z,16.99
2023-08-15T18:07:19.737Z,16.98
2023-08-15T18:09:46.126Z,16.85
2023-08-15T18:12:12.512Z,16.93
2023-08-15T18:14:38.908Z,16.95
2023-08-15T18:17:05.520Z,17.08
2023-08-15T18:19:31.893Z,16.91
2023-08-15T18:21:58.297Z,16.88
2023-08-15T18:24:24.670Z,16.88
2023-08-15T18:26:51.122Z,17.02
2023-08-15T18:29:17.487Z,16.99
2023-08-15T18:31:44.148Z,16.81
2023-08-15T18:34:10.577Z,16.91
2023-08-15T18:36:36.943Z,16.98
2023-08-15T18:39:03.346Z,16.93
2023-08-15T18:41:29.957Z,16.86
2023-08-15T18:43:56.363Z,16.89
2023-08-15T18:46:22.792Z,16.92
2023-08-15T18:48:49.458Z,17.12
2023-08-15T18:51:15.869Z,16.91
2023-08-15T18:53:42.456Z,16.82
2023-08-15T18:56:08.833Z,16.86
2023-08-15T18:58:35.445Z,17.01
2023-08-15T19:01:02.081Z,17.02
2023-08-15T19:03:28.561Z,16.99
2023-08-15T19:05:55.016Z,16.82
2023-08-15T19:08:21.397Z,16.82
2023-08-15T19:10:47.773Z,16.98
2023-08-15T19:13:14.143Z,17.13
2023-08-15T19:15:40.592Z,16.89
2023-08-15T19:18:07.336Z,16.83
2023-08-15T19:20:33.775Z,16.86
2023-08-15T19:23:00.166Z,17.02
2023-08-15T19:25:26.551Z,16.99
2023-08-15T19:27:52.984Z,16.81
2023-08-15T19:30:19.353Z,16.85
2023-08-15T19:32:45.763Z,16.91
2023-08-15T19:35:12.183Z,17.10
2023-08-15T19:37:39.146Z,17.02
2023-08-15T19:40:05.613Z,16.88
2023-08-15T19:42:32.217Z,16.92
2023-08-15T19:44:58.603Z,16.98
2023-08-15T19:47:25.000Z,16.95
2023-08-15T19:49:51.375Z,16.89
2023-08-15T19:52:17.822Z,16.89
2023-08-15T19:54:44.266Z,16.82
2023-08-15T19:57:10.639Z,16.98
2023-08-15T19:59:37.026Z,17.02
2023-08-15T20:02:03.411Z,16.96
2023-08-15T20:04:29.933Z,16.85
2023-08-15T20:06:56.514Z,16.99
2023-08-15T20:09:23.017Z,17.08
2023-08-15T20:11:49.392Z,16.89
2023-08-15T20:14:15.766Z,16.88
2023-08-15T20:16:42.202Z,17.01
2023-08-15T20:19:08.895Z,16.95
2023-08-15T20:21:35.420Z,17.01
2023-08-15T20:24:01.825Z,16.91
2023-08-15T20:26:28.201Z,16.98
2023-08-15T20:28:54.587Z,17.05
2023-08-15T20:31:21.028Z,17.10
2023-08-15T20:33:47.452Z,16.96
2023-08-15T20:36:13.847Z,16.95
2023-08-15T20:38:40.233Z,16.92
2023-08-15T20:41:06.609Z,17.08
2023-08-15T20:43:32.998Z,17.05
2023-08-15T20:45:59.409Z,16.89
2023-08-15T20:48:25.804Z,16.89
2023-08-15T20:50:52.172Z,17.02
2023-08-15T20:53:18.586Z,17.10
2023-08-15T20:55:44.969Z,17.03
2023-08-15T20:58:11.340Z,16.83
2023-08-15T21:00:37.772Z,16.91
2023-08-15T21:03:04.264Z,17.06
2023-08-15T21:05:30.678Z,16.99
2023-08-15T21:07:57.057Z,16.86
2023-08-15T21:10:23.500Z,16.79
2023-08-15T21:12:49.876Z,16.91
2023-08-15T21:15:16.485Z,16.98
2023-08-15T21:17:43.048Z,16.99
2023-08-15T21:20:09.455Z,16.86
2023-08-15T21:22:36.058Z,16.99
2023-08-15T21:25:02.424Z,16.95
2023-08-15T21:27:29.027Z,17.03
2023-08-15T21:29:55.424Z,16.88
2023-08-15T21:32:21.796Z,16.86
2023-08-15T21:34:48.178Z,16.81
2023-08-15T21:39:41.201Z,16.95
2023-08-15T21:42:07.591Z,16.86
2023-08-15T21:44:33.969Z,16.86
2023-08-15T21:47:00.344Z,16.96
2023-08-15T21:49:26.743Z,17.01
2023-08-15T21:51:53.128Z,16.95
2023-08-15T21:54:19.508Z,16.92
2023-08-15T21:56:45.906Z,16.95
2023-08-15T21:59:12.521Z,17.01
2023-08-15T22:01:38.956Z,16.98
2023-08-15T22:04:05.388Z,16.83
2023-08-15T22:06:31.764Z,16.86
2023-08-15T22:08:58.153Z,16.79
2023-08-15T22:11:24.657Z,17.01
2023-08-15T22:13:51.075Z,16.98
2023-08-15T22:16:17.482Z,16.88
2023-08-15T22:18:43.953Z,16.88
2023-08-15T22:21:10.357Z,17.02
2023-08-15T22:23:36.977Z,16.95
2023-08-15T22:26:03.354Z,16.86
2023-08-15T22:28:29.759Z,16.79
2023-08-15T22:30:56.185Z,16.88
2023-08-15T22:33:22.570Z,17.06
2023-08-15T22:35:49.052Z,16.98
2023-08-15T22:38:15.432Z,16.82
2023-08-15T22:40:41.814Z,16.91
2023-08-15T22:43:08.213Z,17.05
2023-08-15T22:45:34.631Z,16.99
2023-08-15T22:48:01.100Z,16.96
2023-08-15T22:50:27.543Z,16.95
2023-08-15T22:52:53.917Z,16.96
2023-08-15T22:55:20.291Z,17.05
2023-08-15T22:57:46.880Z,16.93
2023-08-15T23:00:13.262Z,16.86
2023-08-15T23:02:39.664Z,16.86
2023-08-15T23:05:06.072Z,16.98
2023-08-15T23:07:32.659Z,16.99
2023-08-15T23:09:59.039Z,16.95
2023-08-15T23:12:25.433Z,16.85
2023-08-15T23:14:51.807Z,17.05
2023-08-15T23:17:18.188Z,17.10
2023-08-15T23:19:44.576Z,16.95
2023-08-15T23:22:10.962Z,16.86
2023-08-15T23:24:37.332Z,16.85
2023-08-15T23:27:03.749Z,16.96
2023-08-15T23:29:30.151Z,16.95
2023-08-15T23:31:56.753Z,16.93
2023-08-15T23:34:23.127Z,16.83
2023-08-15T23:36:49.526Z,16.92
2023-08-15T23:39:15.921Z,16.95
2023-08-15T23:41:42.303Z,16.99
2023-08-15T23:44:08.682Z,16.89
2023-08-15T23:46:35.287Z,16.89
2023-08-15T23:49:01.689Z,17.03
2023-08-15T23:51:28.075Z,17.01
2023-08-15T23:53:54.452Z,16.89
2023-08-15T23:56:20.833Z,16.95
2023-08-15T23:58:47.215Z,16.93
